Time;durP1;ratioP1;P1;durP2;ratioP2;P2;SDS_P1;SDS_P2;PMS_P1;PMS_P2;Temp;Humidity;BMP_temperature;BMP_pressure;BME280_temperature;BME280_humidity;BME280_pressure;Samples;Min_cycle;Max_cycle;Signal;HPM_P1;HPM_P2
2021/12/17 00:04:53;;;;;;;8.43;5.60;;;0.40;99.90;;;;;;5061004;28;20869;-55
2021/12/17 00:07:23;;;;;;;6.87;6.03;;;0.10;99.90;;;;;;5066308;28;20451;-56
2021/12/17 00:09:51;;;;;;;4.70;3.90;;;-0.20;99.90;;;;;;5066006;28;20462;-55
2021/12/17 00:12:22;;;;;;;6.50;5.70;;;-0.30;99.90;;;;;;5061515;28;20900;-56
2021/12/17 00:14:50;;;;;;;5.03;4.53;;;-0.20;99.90;;;;;;5065287;28;20530;-57
2021/12/17 00:17:24;;;;;;;6.23;4.50;;;0.00;99.90;;;;;;5075312;28;20472;-56
2021/12/17 00:20:14;;;;;;;6.67;4.63;;;0.10;99.90;;;;;;5060309;28;20452;-56
2021/12/17 00:50:24;;;;;;;8.90;6.80;;;0.20;99.90;;;;;;5055158;28;20416;-55
2021/12/17 00:52:51;;;;;;;6.40;5.40;;;0.30;99.90;;;;;;5061123;28;20585;-53
2021/12/17 00:55:20;;;;;;;8.90;6.47;;;-0.30;99.90;;;;;;5057994;28;21010;-55
2021/12/17 00:57:47;;;;;;;7.23;6.03;;;-0.70;99.90;;;;;;5064845;28;20492;-56
2021/12/17 01:00:17;;;;;;;8.27;6.57;;;-0.60;99.90;;;;;;5087519;22;20495;-57
2021/12/17 01:02:45;;;;;;;7.30;6.37;;;-0.40;99.90;;;;;;5054749;28;20566;-57
2021/12/17 01:05:15;;;;;;;6.83;5.60;;;-0.20;99.90;;;;;;5065460;28;20473;-57
2021/12/17 01:07:45;;;;;;;8.60;6.67;;;-0.20;99.90;;;;;;5067442;28;20479;-57
2021/12/17 01:10:15;;;;;;;9.13;5.83;;;0.00;99.90;;;;;;5055888;28;20554;-59
2021/12/17 01:12:43;;;;;;;7.80;5.60;;;0.20;99.90;;;;;;5058641;28;21167;-57
2021/12/17 01:15:19;;;;;;;9.17;5.53;;;0.30;99.90;;;;;;5062463;28;20534;-57
2021/12/17 01:17:47;;;;;;;5.70;5.20;;;0.40;99.90;;;;;;5053001;28;20459;-57
2021/12/17 01:20:31;;;;;;;6.17;5.13;;;0.50;99.90;;;;;;5062585;28;20856;-57
2021/12/17 01:23:17;;;;;;;6.50;5.60;;;0.60;99.90;;;;;;5064953;28;20978;-57
2021/12/17 01:35:20;;;;;;;7.03;5.63;;;0.70;99.90;;;;;;5054749;28;20462;-58
2021/12/17 01:37:46;;;;;;;8.53;6.10;;;0.70;99.90;;;;;;5041945;28;20942;-55
2021/12/17 01:42:45;;;;;;;6.93;5.50;;;0.80;99.90;;;;;;5064748;28;20471;-56
2021/12/17 01:45:14;;;;;;;6.57;4.73;;;0.70;99.90;;;;;;5069887;28;20996;-58
2021/12/17 01:47:42;;;;;;;6.87;5.40;;;0.70;99.90;;;;;;5058200;28;20444;-59
2021/12/17 01:56:14;;;;;;;6.00;4.97;;;0.10;99.90;;;;;;5008342;28;20936;-59
2021/12/17 02:01:27;;;;;;;6.53;4.83;;;-0.40;99.90;;;;;;5057085;28;20944;-57
2021/12/17 02:03:56;;;;;;;7.60;6.03;;;-0.20;99.90;;;;;;5066606;28;20506;-58
2021/12/17 02:06:23;;;;;;;7.77;6.07;;;-0.20;99.90;;;;;;5065777;28;20448;-58
2021/12/17 02:08:53;;;;;;;5.97;5.37;;;-0.30;99.90;;;;;;5064944;28;20467;-57
2021/12/17 02:19:45;;;;;;;7.10;5.60;;;0.20;99.90;;;;;;5065176;28;20513;-58
2021/12/17 02:30:52;;;;;;;6.90;5.70;;;0.10;99.90;;;;;;5062759;28;20853;-58
2021/12/17 02:33:19;;;;;;;8.07;6.17;;;0.20;99.90;;;;;;5068168;28;20469;-58
2021/12/17 02:35:48;;;;;;;9.13;6.03;;;0.40;99.90;;;;;;5069291;28;20903;-58
2021/12/17 02:38:17;;;;;;;7.20;5.60;;;0.50;99.90;;;;;;5067369;28;20716;-58
2021/12/17 02:46:09;;;;;;;6.90;6.03;;;0.80;99.90;;;;;;5067578;28;20422;-58
2021/12/17 02:48:37;;;;;;;7.40;6.13;;;0.90;99.90;;;;;;5073581;28;20489;-58
2021/12/17 02:51:04;;;;;;;7.80;6.67;;;1.00;99.90;;;;;;5067912;28;20478;-57
2021/12/17 02:53:33;;;;;;;6.63;6.03;;;1.00;99.90;;;;;;5071201;28;20979;-58
2021/12/17 02:56:03;;;;;;;6.73;5.60;;;1.00;99.90;;;;;;5062342;28;20486;-58
2021/12/17 02:58:33;;;;;;;8.73;5.43;;;1.10;99.90;;;;;;5063666;28;20506;-58
2021/12/17 03:01:03;;;;;;;8.20;5.80;;;1.10;99.90;;;;;;5066240;28;20523;-58
2021/12/17 03:03:34;;;;;;;6.90;5.30;;;1.00;99.90;;;;;;5069757;28;20837;-58
2021/12/17 03:06:01;;;;;;;6.33;5.57;;;0.70;99.90;;;;;;5058134;28;20935;-59
2021/12/17 03:08:29;;;;;;;9.27;5.30;;;0.60;99.90;;;;;;5067515;28;21031;-58
2021/12/17 03:10:59;;;;;;;5.47;4.97;;;0.70;99.90;;;;;;5054047;28;20443;-57
2021/12/17 03:13:29;;;;;;;6.93;6.23;;;0.80;99.90;;;;;;5062012;28;20535;-58
2021/12/17 03:16:01;;;;;;;5.93;5.33;;;0.90;99.90;;;;;;5064112;28;20455;-60
2021/12/17 03:23:56;;;;;;;4.60;4.10;;;1.10;99.90;;;;;;5067406;28;20478;-58
2021/12/17 03:26:26;;;;;;;5.10;4.57;;;1.10;99.90;;;;;;5070123;28;20484;-58
2021/12/17 03:28:55;;;;;;;5.50;4.77;;;1.20;99.90;;;;;;5067229;28;20487;-57
2021/12/17 03:31:24;;;;;;;6.60;5.10;;;1.00;99.90;;;;;;5064778;28;20530;-59
2021/12/17 03:33:54;;;;;;;7.10;5.40;;;1.10;99.90;;;;;;5069077;28;20480;-58
2021/12/17 03:36:21;;;;;;;6.10;5.40;;;0.50;99.90;;;;;;5070951;28;20934;-58
2021/12/17 03:38:51;;;;;;;5.60;4.97;;;0.20;99.90;;;;;;5061665;28;21024;-60
2021/12/17 03:41:22;;;;;;;6.10;5.47;;;0.20;99.90;;;;;;5054011;28;20455;-58
2021/12/17 03:43:53;;;;;;;6.27;5.67;;;0.30;99.90;;;;;;5066532;28;20483;-59
2021/12/17 03:46:21;;;;;;;6.70;6.10;;;0.40;99.90;;;;;;5063998;28;20459;-60
2021/12/17 03:48:49;;;;;;;8.13;6.40;;;0.50;99.90;;;;;;5061090;28;20558;-56
2021/12/17 03:51:18;;;;;;;8.50;5.67;;;0.40;99.90;;;;;;5066972;28;20500;-58
2021/12/17 03:53:48;;;;;;;7.30;6.60;;;0.40;99.90;;;;;;5071101;28;20477;-58
2021/12/17 03:56:15;;;;;;;7.20;6.40;;;0.60;99.90;;;;;;5061019;28;20467;-58
2021/12/17 03:58:42;;;;;;;20.10;12.23;;;0.70;99.90;;;;;;5062935;28;20494;-59
2021/12/17 04:01:11;;;;;;;9.23;7.33;;;0.80;99.90;;;;;;5067954;28;20467;-58
2021/12/17 04:03:38;;;;;;;7.40;5.87;;;0.80;99.90;;;;;;5069800;28;20520;-58
2021/12/17 04:06:05;;;;;;;6.63;6.03;;;0.50;99.90;;;;;;5061108;28;20474;-58
2021/12/17 04:08:32;;;;;;;5.73;5.20;;;0.40;99.90;;;;;;5060984;28;20923;-58
2021/12/17 04:11:04;;;;;;;6.17;5.07;;;0.50;99.90;;;;;;5067166;28;20546;-58
2021/12/17 04:13:35;;;;;;;9.60;6.20;;;0.60;99.90;;;;;;5059780;28;20438;-57
2021/12/17 04:16:05;;;;;;;6.77;6.10;;;0.70;99.90;;;;;;5065396;28;20928;-59
2021/12/17 04:18:36;;;;;;;6.53;5.57;;;0.90;99.90;;;;;;5065769;28;20464;-57
2021/12/17 04:21:05;;;;;;;7.13;5.47;;;0.90;99.90;;;;;;5053883;28;20975;-60
2021/12/17 04:23:32;;;;;;;5.93;5.33;;;1.10;99.90;;;;;;5048436;28;20526;-57
2021/12/17 04:25:59;;;;;;;5.73;5.13;;;1.00;99.90;;;;;;5059472;28;20447;-57
2021/12/17 04:28:26;;;;;;;6.13;4.90;;;1.00;99.90;;;;;;5061307;28;20527;-58
2021/12/17 04:30:55;;;;;;;5.30;4.80;;;1.10;99.90;;;;;;5064322;28;20526;-58
2021/12/17 04:33:21;;;;;;;6.03;5.53;;;1.20;99.90;;;;;;5056706;28;20438;-57
2021/12/17 04:35:50;;;;;;;7.10;5.70;;;1.20;99.90;;;;;;5066561;28;20470;-59
2021/12/17 04:38:17;;;;;;;7.20;6.17;;;1.20;99.90;;;;;;5067573;28;20491;-58
2021/12/17 04:40:44;;;;;;;6.93;5.27;;;1.20;99.90;;;;;;5057817;28;20474;-58
2021/12/17 04:43:31;;;;;;;6.30;5.70;;;1.20;99.90;;;;;;5062674;28;20478;-58
2021/12/17 04:46:05;;;;;;;6.77;5.57;;;1.20;99.90;;;;;;5065256;28;20530;-57
2021/12/17 04:59:30;;;;;;;6.97;6.30;;;1.30;99.90;;;;;;5059359;28;20535;-58
2021/12/17 05:02:01;;;;;;;7.20;6.50;;;1.20;99.90;;;;;;5063075;28;21120;-57
2021/12/17 05:04:28;;;;;;;5.57;4.87;;;1.00;99.90;;;;;;5056433;28;20684;-60
2021/12/17 05:06:56;;;;;;;6.17;4.90;;;1.00;99.90;;;;;;5055260;28;20452;-57
2021/12/17 05:09:31;;;;;;;5.97;5.37;;;1.00;99.90;;;;;;5065230;28;20493;-59
2021/12/17 05:20:27;;;;;;;9.03;5.70;;;1.20;99.90;;;;;;5056477;28;20472;-57
2021/12/17 05:22:58;;;;;;;6.70;6.03;;;1.20;99.90;;;;;;5060815;28;20952;-56
2021/12/17 05:25:27;;;;;;;7.00;5.20;;;1.10;99.90;;;;;;5069376;28;20479;-57
2021/12/17 05:27:59;;;;;;;6.00;5.00;;;1.10;99.90;;;;;;5056365;28;20951;-57
2021/12/17 05:30:27;;;;;;;6.80;6.20;;;1.00;99.90;;;;;;5059920;28;20523;-59
2021/12/17 05:32:54;;;;;;;5.40;4.90;;;1.00;99.90;;;;;;5067207;28;20513;-57
2021/12/17 05:35:21;;;;;;;5.20;4.70;;;1.00;99.90;;;;;;5067340;28;20482;-58
2021/12/17 05:37:48;;;;;;;6.40;5.80;;;0.90;99.90;;;;;;5056147;28;20959;-60
2021/12/17 05:40:16;;;;;;;5.80;5.30;;;1.00;99.90;;;;;;5060508;28;21035;-58
2021/12/17 05:42:43;;;;;;;6.73;5.30;;;0.90;99.90;;;;;;5056020;28;20490;-58
2021/12/17 05:45:20;;;;;;;5.93;5.43;;;1.00;99.90;;;;;;5065112;28;21007;-62
2021/12/17 05:47:48;;;;;;;5.37;4.67;;;1.10;99.90;;;;;;5063192;28;20489;-59
2021/12/17 05:50:15;;;;;;;5.60;5.07;;;1.10;99.90;;;;;;5066678;28;20495;-58
2021/12/17 05:52:42;;;;;;;6.60;5.90;;;1.20;99.90;;;;;;5065956;28;20539;-57
2021/12/17 05:55:09;;;;;;;9.20;7.30;;;1.10;99.90;;;;;;5067033;28;20534;-59
2021/12/17 05:57:37;;;;;;;8.07;7.17;;;1.10;99.90;;;;;;5063662;28;20481;-58
2021/12/17 06:00:06;;;;;;;8.37;6.97;;;1.10;99.90;;;;;;5065497;28;20560;-57
2021/12/17 06:02:33;;;;;;;8.00;7.20;;;1.10;99.90;;;;;;5062417;28;20497;-56
2021/12/17 06:05:00;;;;;;;7.67;6.73;;;1.10;99.90;;;;;;5064921;28;20508;-58
2021/12/17 06:07:28;;;;;;;7.73;7.03;;;1.10;99.90;;;;;;5064667;28;20446;-58
2021/12/17 06:09:58;;;;;;;8.53;5.90;;;0.60;99.90;;;;;;5061420;28;20555;-57
2021/12/17 06:12:25;;;;;;;7.27;6.47;;;0.40;99.90;;;;;;5068823;28;20444;-57
2021/12/17 06:14:53;;;;;;;7.40;6.70;;;0.60;99.90;;;;;;5063207;28;20895;-58
2021/12/17 06:17:20;;;;;;;12.57;11.23;;;0.70;99.90;;;;;;5059284;28;20525;-58
2021/12/17 06:19:47;;;;;;;8.03;6.97;;;0.70;99.90;;;;;;5063296;28;20463;-57
2021/12/17 06:22:15;;;;;;;6.23;5.60;;;0.70;99.90;;;;;;5062879;28;20534;-57
2021/12/17 06:24:44;;;;;;;7.27;6.17;;;0.70;99.90;;;;;;5057147;28;20992;-58
2021/12/17 06:27:11;;;;;;;6.97;5.77;;;0.80;99.90;;;;;;5067010;28;20459;-58
2021/12/17 06:29:38;;;;;;;4.80;4.30;;;0.80;99.90;;;;;;5050707;28;20555;-58
2021/12/17 06:32:08;;;;;;;6.90;5.60;;;0.80;99.90;;;;;;5066513;28;20526;-60
2021/12/17 06:34:36;;;;;;;5.70;5.20;;;0.80;99.90;;;;;;5065491;28;20477;-58
2021/12/17 06:37:03;;;;;;;5.93;4.80;;;0.80;99.90;;;;;;5054160;28;20522;-58
2021/12/17 06:39:30;;;;;;;5.50;4.63;;;0.80;99.90;;;;;;5068262;28;20561;-58
2021/12/17 06:41:57;;;;;;;5.73;4.00;;;0.80;99.90;;;;;;5060728;28;20532;-57
2021/12/17 06:44:26;;;;;;;5.07;4.40;;;0.30;99.90;;;;;;5054658;28;20569;-58
2021/12/17 06:46:58;;;;;;;9.80;5.40;;;-0.10;99.90;;;;;;5062144;28;20471;-58
2021/12/17 06:49:42;;;;;;;8.00;6.57;;;-0.30;99.90;;;;;;5058179;28;20530;-58
2021/12/17 06:55:04;;;;;;;8.83;6.50;;;-0.50;99.90;;;;;;5063996;28;20425;-57
2021/12/17 07:00:33;;;;;;;6.50;5.80;;;-0.70;99.90;;;;;;5054175;28;20504;-57
2021/12/17 07:05:58;;;;;;;5.07;4.53;;;-0.50;99.90;;;;;;5058515;28;20576;-58
2021/12/17 07:22:26;;;;;;;7.10;6.40;;;-0.10;99.90;;;;;;5025076;28;20680;-58
2021/12/17 07:28:05;;;;;;;11.03;8.50;;;-0.70;99.90;;;;;;5059659;28;20484;-58
2021/12/17 07:33:15;;;;;;;5.70;4.37;;;-0.30;99.90;;;;;;5062656;28;20508;-58
2021/12/17 07:35:48;;;;;;;6.27;4.27;;;-0.50;99.90;;;;;;5068730;28;20523;-59
2021/12/17 07:41:02;;;;;;;6.43;5.83;;;-1.10;99.90;;;;;;5067547;28;20514;-59
2021/12/17 07:43:36;;;;;;;6.60;5.70;;;-1.20;99.90;;;;;;5056355;28;21005;-58
2021/12/17 07:46:05;;;;;;;7.17;6.13;;;-1.20;99.90;;;;;;5065333;28;20516;-57
2021/12/17 07:48:33;;;;;;;8.67;7.77;;;-1.10;99.90;;;;;;5060118;28;20468;-57
2021/12/17 07:51:02;;;;;;;15.00;13.37;;;-0.90;99.90;;;;;;5058055;28;20953;-57
2021/12/17 07:53:30;;;;;;;24.87;20.47;;;-1.00;99.90;;;;;;5068428;28;20543;-57
2021/12/17 07:55:58;;;;;;;10.90;9.83;;;-1.20;99.90;;;;;;5069036;28;20526;-59
2021/12/17 07:58:25;;;;;;;10.40;8.70;;;-1.20;99.90;;;;;;5069901;28;20515;-59
2021/12/17 08:00:52;;;;;;;9.80;8.63;;;-1.00;99.90;;;;;;5067528;28;20455;-58
2021/12/17 08:03:19;;;;;;;9.40;8.33;;;-1.10;99.90;;;;;;5070074;28;20520;-59
2021/12/17 08:05:46;;;;;;;10.23;8.33;;;-1.10;99.90;;;;;;5074550;28;20571;-58
2021/12/17 08:08:13;;;;;;;8.37;6.83;;;-0.90;99.90;;;;;;5061851;28;20530;-58
2021/12/17 08:10:41;;;;;;;6.77;6.10;;;-0.90;99.90;;;;;;5060488;28;20838;-57
2021/12/17 08:13:14;;;;;;;7.73;5.70;;;-0.70;99.90;;;;;;5063461;28;20517;-57
2021/12/17 08:15:49;;;;;;;9.20;7.87;;;-0.50;99.90;;;;;;5057828;28;20444;-58
2021/12/17 08:18:28;;;;;;;9.47;8.00;;;-0.30;99.90;;;;;;5054061;28;20787;-58
2021/12/17 08:26:39;;;;;;;12.30;8.20;;;0.10;99.90;;;;;;5050716;28;20992;-59
2021/12/17 08:29:27;;;;;;;10.57;9.27;;;0.10;99.90;;;;;;5063710;28;20545;-58
2021/12/17 08:31:55;;;;;;;12.70;9.70;;;-0.10;99.90;;;;;;5062949;28;20455;-59
2021/12/17 08:34:23;;;;;;;11.30;10.10;;;-0.30;99.90;;;;;;5058564;28;20872;-58
2021/12/17 08:36:50;;;;;;;10.97;7.90;;;-0.30;99.90;;;;;;5068576;28;21011;-57
2021/12/17 08:39:18;;;;;;;8.83;7.73;;;-0.20;99.90;;;;;;5063529;28;20549;-60
2021/12/17 08:41:50;;;;;;;10.00;7.93;;;-0.20;99.90;;;;;;5059071;28;20530;-57
2021/12/17 08:44:17;;;;;;;8.43;7.23;;;-0.30;99.90;;;;;;5068623;28;20523;-58
2021/12/17 08:46:44;;;;;;;7.23;6.53;;;-0.10;99.90;;;;;;5060176;28;20497;-57
2021/12/17 08:49:11;;;;;;;11.77;6.70;;;0.00;99.90;;;;;;5070111;28;20904;-59
2021/12/17 08:51:39;;;;;;;7.10;6.40;;;0.10;99.90;;;;;;5064706;28;20476;-58
2021/12/17 08:54:06;;;;;;;6.83;5.93;;;0.00;99.90;;;;;;5066047;28;20492;-59
2021/12/17 08:56:35;;;;;;;6.10;5.50;;;-0.10;99.90;;;;;;5060913;28;20888;-57
2021/12/17 08:59:06;;;;;;;6.87;5.80;;;0.10;99.90;;;;;;5062235;28;20497;-60
2021/12/17 09:01:32;;;;;;;13.00;9.13;;;0.10;99.90;;;;;;5067878;28;20520;-57
2021/12/17 09:04:00;;;;;;;11.13;8.70;;;0.20;99.90;;;;;;5065006;28;20860;-58
2021/12/17 09:06:28;;;;;;;13.27;9.50;;;0.30;99.90;;;;;;5058105;28;20574;-58
2021/12/17 09:08:55;;;;;;;9.20;6.70;;;0.40;99.90;;;;;;5057142;28;20517;-58
2021/12/17 09:11:23;;;;;;;6.00;5.30;;;0.50;99.90;;;;;;5070661;28;20517;-58
2021/12/17 09:13:51;;;;;;;13.37;11.97;;;0.60;99.90;;;;;;5055759;28;20843;-59
2021/12/17 09:16:21;;;;;;;17.13;12.27;;;0.70;99.90;;;;;;5068178;28;20537;-58
2021/12/17 09:18:48;;;;;;;11.77;9.90;;;0.60;99.90;;;;;;5064914;28;20483;-59
2021/12/17 09:21:16;;;;;;;13.10;10.47;;;0.60;99.90;;;;;;5053955;28;20874;-57
2021/12/17 09:23:43;;;;;;;11.97;10.60;;;0.50;99.90;;;;;;5066741;28;20562;-58
2021/12/17 09:26:10;;;;;;;9.33;8.17;;;0.00;99.90;;;;;;5058465;28;20484;-60
2021/12/17 09:28:37;;;;;;;10.70;7.57;;;-0.20;99.90;;;;;;5069227;28;20501;-58
2021/12/17 09:31:05;;;;;;;8.70;7.20;;;-0.10;99.90;;;;;;5064016;28;20531;-61
2021/12/17 09:33:33;;;;;;;13.03;11.80;;;0.10;99.90;;;;;;5056872;28;20560;-58
2021/12/17 09:36:01;;;;;;;18.77;16.80;;;0.20;99.90;;;;;;5057749;28;20470;-57
2021/12/17 09:38:28;;;;;;;16.03;12.93;;;0.30;99.90;;;;;;5066941;28;20870;-59
2021/12/17 09:40:56;;;;;;;12.63;10.73;;;0.40;99.90;;;;;;5060057;28;20495;-58
2021/12/17 09:43:22;;;;;;;11.70;9.77;;;0.50;99.90;;;;;;5060434;28;20541;-57
2021/12/17 09:45:49;;;;;;;13.00;11.53;;;0.60;99.90;;;;;;5059852;28;20561;-58
2021/12/17 09:48:19;;;;;;;13.40;9.83;;;0.60;99.90;;;;;;5053193;28;20435;-58
2021/12/17 09:50:47;;;;;;;9.73;7.97;;;0.70;99.90;;;;;;5065100;28;20540;-57
2021/12/17 09:53:14;;;;;;;11.20;7.27;;;0.70;99.90;;;;;;5068823;28;20521;-59
2021/12/17 09:55:41;;;;;;;7.57;6.87;;;0.70;99.90;;;;;;5058210;28;20962;-59
2021/12/17 09:58:08;;;;;;;10.00;7.23;;;0.70;99.90;;;;;;5062469;28;20524;-58
2021/12/17 10:00:35;;;;;;;9.57;7.60;;;0.80;99.90;;;;;;5057007;28;21067;-58
2021/12/17 10:03:02;;;;;;;7.77;6.60;;;0.90;99.90;;;;;;5068555;28;20466;-59
2021/12/17 10:05:32;;;;;;;9.13;7.00;;;0.90;99.90;;;;;;5066686;28;20485;-58
2021/12/17 10:08:02;;;;;;;6.53;5.33;;;0.70;99.90;;;;;;5064767;28;20502;-58
2021/12/17 10:10:34;;;;;;;8.07;6.67;;;0.50;99.90;;;;;;5058729;28;20542;-58
2021/12/17 10:13:09;;;;;;;9.37;6.50;;;0.70;99.90;;;;;;5059042;28;20545;-58
2021/12/17 10:15:37;;;;;;;9.00;7.20;;;0.70;99.90;;;;;;5050491;28;20496;-58
2021/12/17 10:18:04;;;;;;;10.23;7.50;;;0.80;99.90;;;;;;5062637;28;20587;-59
2021/12/17 10:20:33;;;;;;;7.20;6.50;;;0.90;99.90;;;;;;5058420;28;20915;-59
2021/12/17 10:23:05;;;;;;;9.53;7.40;;;1.00;99.90;;;;;;5055353;28;20476;-58
2021/12/17 10:25:33;;;;;;;7.63;6.53;;;1.10;99.90;;;;;;5065662;28;20482;-58
2021/12/17 10:28:03;;;;;;;10.00;7.33;;;1.00;99.90;;;;;;5053060;28;20570;-58
2021/12/17 10:30:31;;;;;;;8.23;6.70;;;1.10;99.90;;;;;;5066212;28;20473;-60
2021/12/17 10:33:01;;;;;;;7.73;6.83;;;1.20;99.90;;;;;;5066882;28;20485;-61
2021/12/17 10:35:29;;;;;;;7.40;6.60;;;1.30;99.90;;;;;;5058025;28;20489;-59
2021/12/17 10:38:00;;;;;;;9.17;7.83;;;1.30;99.90;;;;;;5068044;28;20527;-58
2021/12/17 10:40:31;;;;;;;7.87;6.30;;;1.30;99.90;;;;;;5064980;28;20473;-59
2021/12/17 10:43:03;;;;;;;8.73;7.33;;;1.40;99.90;;;;;;5062342;28;20447;-58
2021/12/17 10:45:35;;;;;;;9.03;7.37;;;1.50;99.90;;;;;;5070866;28;20540;-59
2021/12/17 10:51:17;;;;;;;7.53;6.73;;;1.50;99.90;;;;;;5027123;28;20947;-57
2021/12/17 10:53:53;;;;;;;8.97;7.00;;;1.50;99.90;;;;;;5058505;28;20451;-57
2021/12/17 10:56:23;;;;;;;7.83;6.70;;;1.50;99.90;;;;;;5066058;28;20522;-58
2021/12/17 10:58:55;;;;;;;9.03;6.70;;;1.60;99.90;;;;;;5067260;28;20560;-58
2021/12/17 11:01:35;;;;;;;6.27;5.67;;;1.60;99.90;;;;;;5067290;28;20530;-59
2021/12/17 11:04:14;;;;;;;8.40;6.50;;;1.60;99.90;;;;;;5065739;28;20478;-57
2021/12/17 11:06:43;;;;;;;8.10;7.30;;;1.60;99.90;;;;;;5053762;28;20571;-58
2021/12/17 11:09:10;;;;;;;6.87;5.30;;;1.60;99.90;;;;;;5065908;28;20952;-59
2021/12/17 11:11:42;;;;;;;6.43;5.47;;;1.60;99.90;;;;;;5064674;28;20523;-59
2021/12/17 11:14:09;;;;;;;8.30;6.33;;;1.60;99.90;;;;;;5065618;28;20831;-58
2021/12/17 11:16:39;;;;;;;9.10;6.47;;;1.60;99.90;;;;;;5062498;28;20952;-58
2021/12/17 11:19:07;;;;;;;7.37;6.67;;;1.60;99.90;;;;;;5067838;28;20470;-58
2021/12/17 11:21:34;;;;;;;7.50;6.50;;;1.60;99.90;;;;;;5067485;28;20475;-58
2021/12/17 11:24:01;;;;;;;8.30;7.10;;;1.50;99.90;;;;;;5069285;28;20863;-59
2021/12/17 11:26:29;;;;;;;9.20;7.53;;;1.50;99.90;;;;;;5065149;28;21012;-58
2021/12/17 11:29:02;;;;;;;22.73;14.13;;;1.60;99.90;;;;;;5066520;28;20831;-58
2021/12/17 11:31:31;;;;;;;10.50;8.43;;;1.60;99.90;;;;;;5068141;28;20455;-57
2021/12/17 11:34:00;;;;;;;7.10;6.20;;;1.70;99.90;;;;;;5064470;28;20956;-58
2021/12/17 11:36:28;;;;;;;11.20;7.53;;;1.70;99.90;;;;;;5066290;28;20524;-58
2021/12/17 11:39:03;;;;;;;9.93;7.87;;;1.70;99.90;;;;;;5064213;28;20945;-57
2021/12/17 11:41:39;;;;;;;7.07;6.30;;;1.80;99.90;;;;;;5064649;28;20942;-57
2021/12/17 11:44:12;;;;;;;8.20;6.97;;;1.70;99.90;;;;;;5064050;28;20472;-57
2021/12/17 11:46:39;;;;;;;8.20;7.40;;;1.80;99.90;;;;;;5061764;28;20563;-60
2021/12/17 11:49:08;;;;;;;7.77;6.93;;;1.80;99.90;;;;;;5069065;28;20568;-59
2021/12/17 11:51:36;;;;;;;7.00;6.07;;;1.80;99.90;;;;;;5068294;28;20539;-60
2021/12/17 11:54:07;;;;;;;6.70;6.00;;;1.90;99.90;;;;;;5058607;28;21035;-59
2021/12/17 11:56:39;;;;;;;7.00;6.30;;;1.90;99.90;;;;;;5064391;28;20821;-58
2021/12/17 11:59:10;;;;;;;12.17;8.50;;;1.80;99.90;;;;;;5068593;28;20503;-58
2021/12/17 12:01:55;;;;;;;11.07;8.87;;;1.90;99.90;;;;;;5058646;28;20456;-60
2021/12/17 12:04:40;;;;;;;14.20;7.67;;;1.90;99.90;;;;;;5068611;28;20453;-61
2021/12/17 12:07:10;;;;;;;8.50;6.73;;;2.00;99.90;;;;;;5064561;28;20573;-58
2021/12/17 12:10:04;;;;;;;7.10;6.50;;;2.00;99.90;;;;;;5058483;28;20549;-62
2021/12/17 12:12:56;;;;;;;15.70;11.50;;;2.00;99.90;;;;;;5053353;28;20479;-60
2021/12/17 12:15:37;;;;;;;9.73;7.47;;;2.00;99.90;;;;;;5063219;28;20536;-58
2021/12/17 12:18:12;;;;;;;7.83;7.00;;;2.00;99.90;;;;;;5069237;28;20447;-58
2021/12/17 12:20:59;;;;;;;10.20;8.87;;;2.00;99.90;;;;;;5054546;28;20449;-60
2021/12/17 12:23:38;;;;;;;16.60;11.40;;;2.00;99.90;;;;;;5059851;28;20460;-58
2021/12/17 12:26:34;;;;;;;8.63;7.73;;;2.10;99.90;;;;;;5065406;28;20484;-61
2021/12/17 12:29:13;;;;;;;7.73;6.87;;;2.10;99.90;;;;;;5065250;28;20475;-58
2021/12/17 12:32:00;;;;;;;7.93;7.13;;;2.00;99.90;;;;;;5070205;28;20567;-60
2021/12/17 12:34:35;;;;;;;9.17;7.77;;;2.10;99.90;;;;;;5066863;28;20445;-59
2021/12/17 12:37:05;;;;;;;7.00;6.40;;;2.00;99.90;;;;;;5067687;28;20540;-60
2021/12/17 12:39:36;;;;;;;7.37;6.57;;;2.10;99.90;;;;;;5060209;28;20913;-58
2021/12/17 12:42:06;;;;;;;7.57;6.83;;;2.00;99.90;;;;;;5072368;28;20486;-59
2021/12/17 12:45:10;;;;;;;9.40;7.60;;;2.10;99.90;;;;;;5061978;28;20450;-58
2021/12/17 12:47:50;;;;;;;6.60;6.03;;;2.20;99.90;;;;;;5072876;28;20506;-59
2021/12/17 12:50:19;;;;;;;10.87;8.00;;;2.10;99.90;;;;;;5062246;28;20485;-61
2021/12/17 12:52:47;;;;;;;7.80;7.10;;;2.20;99.90;;;;;;5061439;28;20476;-60
2021/12/17 12:55:21;;;;;;;8.33;6.97;;;2.20;99.90;;;;;;5068892;28;20527;-60
2021/12/17 12:57:50;;;;;;;7.47;6.87;;;2.30;99.90;;;;;;5066340;28;20537;-59
2021/12/17 13:00:21;;;;;;;8.73;7.70;;;2.30;99.90;;;;;;5058910;28;20463;-58
2021/12/17 13:02:53;;;;;;;10.50;8.83;;;2.30;99.90;;;;;;5055594;28;20525;-61
2021/12/17 13:05:20;;;;;;;8.50;7.70;;;2.30;99.90;;;;;;5066197;28;20469;-59
2021/12/17 13:07:50;;;;;;;7.40;6.23;;;2.30;99.90;;;;;;5055825;28;20938;-58
2021/12/17 13:10:19;;;;;;;8.20;6.93;;;2.30;99.90;;;;;;5061702;28;20467;-58
2021/12/17 13:12:53;;;;;;;9.20;8.03;;;2.30;99.90;;;;;;5062274;28;20483;-60
2021/12/17 13:15:38;;;;;;;8.97;7.47;;;2.30;99.90;;;;;;5056859;28;20515;-59
2021/12/17 13:21:20;;;;;;;9.03;7.33;;;2.30;99.90;;;;;;5034091;28;20433;-60
2021/12/17 13:23:52;;;;;;;8.03;7.23;;;2.30;99.90;;;;;;5067527;28;20529;-59
2021/12/17 13:26:21;;;;;;;8.10;6.80;;;2.10;99.90;;;;;;5052955;28;20595;-59
2021/12/17 13:28:52;;;;;;;7.80;6.93;;;2.00;99.90;;;;;;5063498;28;20496;-60
2021/12/17 13:31:34;;;;;;;8.80;7.70;;;2.00;99.90;;;;;;5062286;28;20537;-59
2021/12/17 13:34:05;;;;;;;8.30;7.33;;;2.10;99.90;;;;;;5064905;28;21008;-58
2021/12/17 13:36:33;;;;;;;9.40;7.50;;;2.10;99.90;;;;;;5066145;28;20527;-61
2021/12/17 13:39:00;;;;;;;12.50;7.17;;;2.20;99.90;;;;;;5054653;28;20587;-61
2021/12/17 13:41:39;;;;;;;8.80;7.73;;;2.20;99.90;;;;;;5059900;28;20953;-59
2021/12/17 13:44:06;;;;;;;10.17;8.63;;;2.20;99.90;;;;;;5063847;28;20540;-58
2021/12/17 13:46:36;;;;;;;10.10;7.77;;;2.20;99.90;;;;;;5055067;28;20508;-59
2021/12/17 13:49:05;;;;;;;10.43;9.50;;;2.20;99.90;;;;;;5062644;28;20453;-58
2021/12/17 13:51:32;;;;;;;12.30;9.57;;;2.20;99.90;;;;;;5060030;28;20531;-58
2021/12/17 13:53:59;;;;;;;13.10;9.27;;;2.20;99.90;;;;;;5055612;28;20749;-59
2021/12/17 13:56:26;;;;;;;11.37;8.50;;;2.20;99.90;;;;;;5073126;28;20460;-63
2021/12/17 13:59:01;;;;;;;8.77;7.87;;;2.10;99.90;;;;;;5055916;28;20465;-59
2021/12/17 14:01:29;;;;;;;12.37;9.77;;;2.10;99.90;;;;;;5059481;28;20449;-60
2021/12/17 14:03:56;;;;;;;11.93;10.30;;;2.00;99.90;;;;;;5064876;28;20545;-58
2021/12/17 14:06:28;;;;;;;14.73;10.23;;;1.80;99.90;;;;;;5055967;28;20511;-58
2021/12/17 14:08:55;;;;;;;11.40;9.63;;;1.80;99.90;;;;;;5055500;28;20821;-58
2021/12/17 14:11:27;;;;;;;10.07;8.93;;;1.80;99.90;;;;;;5063565;28;20475;-59
2021/12/17 14:13:54;;;;;;;10.00;9.03;;;1.80;99.90;;;;;;5053192;28;20483;-61
2021/12/17 14:16:29;;;;;;;10.53;9.50;;;1.80;99.90;;;;;;5061804;28;20525;-58
2021/12/17 14:18:58;;;;;;;10.13;8.27;;;1.70;99.90;;;;;;5061372;28;20546;-58
2021/12/17 14:21:30;;;;;;;12.00;8.90;;;1.70;99.90;;;;;;5068268;28;20446;-59
2021/12/17 14:23:57;;;;;;;9.23;7.97;;;1.60;99.90;;;;;;5067723;28;20480;-60
2021/12/17 14:26:29;;;;;;;9.13;7.80;;;1.60;99.90;;;;;;5063041;28;20515;-58
2021/12/17 14:28:56;;;;;;;11.90;9.70;;;1.60;99.90;;;;;;5063453;28;20460;-61
2021/12/17 14:31:25;;;;;;;18.00;13.40;;;1.50;99.90;;;;;;5070755;28;20542;-59
2021/12/17 14:33:54;;;;;;;12.30;11.00;;;1.50;99.90;;;;;;5063212;28;20462;-58
2021/12/17 14:36:26;;;;;;;11.53;10.33;;;1.50;99.90;;;;;;5063301;28;20452;-60
2021/12/17 14:39:04;;;;;;;11.17;9.33;;;1.30;99.90;;;;;;5068398;28;21082;-58
2021/12/17 14:41:38;;;;;;;12.37;10.00;;;0.80;99.90;;;;;;5062729;28;20498;-58
2021/12/17 14:44:20;;;;;;;13.40;10.80;;;0.50;99.90;;;;;;5067244;28;20440;-58
2021/12/17 14:46:51;;;;;;;11.43;10.27;;;0.50;99.90;;;;;;5071187;28;21003;-58
2021/12/17 15:00:32;;;;;;;9.40;8.30;;;0.60;99.90;;;;;;5030364;28;21052;-58
2021/12/17 15:03:02;;;;;;;9.27;8.37;;;0.70;99.90;;;;;;5066678;28;20443;-60
2021/12/17 15:05:32;;;;;;;9.60;7.70;;;0.80;99.90;;;;;;5063307;28;20965;-60
2021/12/17 15:08:00;;;;;;;10.43;9.17;;;0.90;99.90;;;;;;5059287;28;20575;-59
2021/12/17 15:10:30;;;;;;;13.73;12.10;;;1.00;99.90;;;;;;5070376;28;20551;-58
2021/12/17 15:13:00;;;;;;;14.03;12.60;;;1.00;99.90;;;;;;5060525;28;20454;-58
2021/12/17 15:15:28;;;;;;;15.70;13.47;;;0.80;99.90;;;;;;5062004;28;20456;-59
2021/12/17 15:17:57;;;;;;;16.20;13.93;;;0.90;99.90;;;;;;5065378;28;20527;-59
2021/12/17 15:20:26;;;;;;;15.43;12.10;;;0.90;99.90;;;;;;5068922;28;20583;-59
2021/12/17 15:22:54;;;;;;;14.10;11.23;;;0.80;99.90;;;;;;5057567;28;20476;-59
2021/12/17 15:25:21;;;;;;;12.37;10.40;;;0.70;99.90;;;;;;5062520;28;20443;-58
2021/12/17 15:27:51;;;;;;;12.90;10.63;;;0.80;99.90;;;;;;5055968;28;20484;-57
2021/12/17 15:30:21;;;;;;;9.50;8.50;;;0.90;99.90;;;;;;5068597;28;20545;-58
2021/12/17 15:32:48;;;;;;;12.07;9.30;;;0.90;99.90;;;;;;5062510;28;20722;-58
2021/12/17 15:35:17;;;;;;;8.83;8.00;;;0.90;99.90;;;;;;5069167;28;20533;-60
2021/12/17 15:37:44;;;;;;;8.43;7.50;;;0.90;99.90;;;;;;5068900;28;20449;-58
2021/12/17 15:40:13;;;;;;;11.30;10.20;;;0.60;99.90;;;;;;5060061;28;20551;-60
2021/12/17 15:42:40;;;;;;;12.30;10.47;;;0.10;99.90;;;;;;5066583;28;20468;-59